createdAt,value
2022-08-02T00:00:58.254Z,20.33
2022-08-02T00:03:25.551Z,20.28
2022-08-02T00:05:54.061Z,20.21
2022-08-02T00:08:22.596Z,20.25
2022-08-02T00:10:50.293Z,20.24
2022-08-02T00:13:17.838Z,20.20
2022-08-02T00:15:45.208Z,20.24
2022-08-02T00:18:12.561Z,20.18
2022-08-02T00:20:40.114Z,20.21
2022-08-02T00:23:07.341Z,20.21
2022-08-02T00:25:34.747Z,20.26
2022-08-02T00:28:02.189Z,20.28
2022-08-02T00:30:29.441Z,20.29
2022-08-02T00:32:56.666Z,20.27
2022-08-02T00:35:24.119Z,20.29
2022-08-02T00:37:51.509Z,20.34
2022-08-02T00:40:23.699Z,20.40
2022-08-02T00:43:11.673Z,20.41
2022-08-02T00:46:02.297Z,20.49
2022-08-02T00:48:29.025Z,20.50
2022-08-02T00:50:57.653Z,20.50
2022-08-02T00:53:24.910Z,20.55
2022-08-02T00:55:52.790Z,20.54
2022-08-02T00:58:20.080Z,20.54
2022-08-02T01:00:47.512Z,20.51
2022-08-02T01:03:15.209Z,20.50
2022-08-02T01:06:02.361Z,20.51
2022-08-02T01:08:32.001Z,20.48
2022-08-02T01:11:00.069Z,20.49
2022-08-02T01:13:28.586Z,20.48
2022-08-02T01:16:11.709Z,20.46
2022-08-02T01:18:45.668Z,20.48
2022-08-02T01:21:49.117Z,20.40
2022-08-02T01:24:59.438Z,20.35
2022-08-02T01:28:29.864Z,20.35
2022-08-02T01:31:08.378Z,20.39
2022-08-02T01:33:48.945Z,20.37
2022-08-02T01:36:20.388Z,20.37
2022-08-02T01:38:53.661Z,20.39
2022-08-02T01:41:28.204Z,20.39
2022-08-02T01:43:59.812Z,20.37
2022-08-02T01:46:30.375Z,20.38
2022-08-02T01:49:01.920Z,20.43
2022-08-02T01:51:50.781Z,20.48
2022-08-02T01:54:25.069Z,20.46
2022-08-02T01:56:55.845Z,20.49
2022-08-02T01:59:26.459Z,20.49
2022-08-02T02:01:58.711Z,20.48
2022-08-02T02:04:31.019Z,20.46
2022-08-02T02:06:59.254Z,20.46
2022-08-02T02:09:30.710Z,20.45
2022-08-02T02:12:12.171Z,20.44
2022-08-02T02:14:51.984Z,20.42
2022-08-02T02:17:52.888Z,20.44
2022-08-02T02:20:17.638Z,20.41
2022-08-02T02:22:45.983Z,20.41
2022-08-02T02:25:23.723Z,20.37
2022-08-02T02:28:09.719Z,20.33
2022-08-02T02:30:42.656Z,20.29
2022-08-02T02:33:11.864Z,20.27
2022-08-02T02:35:42.279Z,20.28
2022-08-02T02:38:14.766Z,20.23
2022-08-02T02:40:45.108Z,20.29
2022-08-02T02:43:14.592Z,20.26
2022-08-02T02:45:45.198Z,20.31
2022-08-02T02:48:15.356Z,20.29
2022-08-02T02:50:44.273Z,20.31
2022-08-02T02:53:16.715Z,20.30
2022-08-02T02:56:01.662Z,20.25
2022-08-02T02:58:32.393Z,20.21
2022-08-02T03:01:19.553Z,20.23
2022-08-02T03:03:48.086Z,20.28
2022-08-02T03:06:16.215Z,20.27
2022-08-02T03:08:44.137Z,20.25
2022-08-02T03:11:12.875Z,20.26
2022-08-02T03:13:41.059Z,20.26
2022-08-02T03:16:09.029Z,20.27
2022-08-02T03:18:39.542Z,20.22
2022-08-02T03:21:14.364Z,20.19
2022-08-02T03:23:43.772Z,20.25
2022-08-02T03:26:11.519Z,20.28
2022-08-02T03:28:38.761Z,20.28
2022-08-02T03:31:06.044Z,20.28
2022-08-02T03:33:35.644Z,20.30
2022-08-02T03:36:13.901Z,20.31
2022-08-02T03:38:44.023Z,20.21
2022-08-02T03:41:16.821Z,20.21
2022-08-02T03:43:47.979Z,20.28
2022-08-02T03:46:21.719Z,20.32
2022-08-02T03:48:51.916Z,20.31
2022-08-02T03:51:20.955Z,20.33
2022-08-02T03:53:49.240Z,20.33
2022-08-02T03:56:17.228Z,20.33
2022-08-02T03:58:48.619Z,20.39
2022-08-02T04:01:17.013Z,20.33
2022-08-02T04:03:44.469Z,20.21
2022-08-02T04:06:11.789Z,20.29
2022-08-02T04:08:39.164Z,20.24
2022-08-02T04:11:25.770Z,20.29
2022-08-02T04:13:56.984Z,20.21
2022-08-02T04:16:39.489Z,20.23
2022-08-02T04:19:15.006Z,20.16
2022-08-02T04:21:51.620Z,20.22
2022-08-02T04:24:36.303Z,20.25
2022-08-02T04:27:51.321Z,20.32
2022-08-02T04:29:57.854Z,20.38
2022-08-02T04:32:25.622Z,20.43
2022-08-02T04:35:21.170Z,20.51
2022-08-02T04:38:08.923Z,20.66
2022-08-02T04:40:29.897Z,20.69
2022-08-02T04:42:57.397Z,20.75
2022-08-02T04:45:26.940Z,20.79
2022-08-02T04:48:03.816Z,20.80
2022-08-02T04:50:31.846Z,20.82
2022-08-02T04:52:59.075Z,20.85
2022-08-02T04:55:29.222Z,20.84
2022-08-02T04:57:58.422Z,20.89
2022-08-02T05:00:28.807Z,20.96
2022-08-02T05:02:57.457Z,21.02
2022-08-02T05:05:25.426Z,21.02
2022-08-02T05:07:53.419Z,21.07
2022-08-02T05:10:21.056Z,21.07
2022-08-02T05:12:48.640Z,21.05
2022-08-02T05:15:18.466Z,21.04
2022-08-02T05:17:48.666Z,21.03
2022-08-02T05:20:18.020Z,21.03
2022-08-02T05:22:46.568Z,20.92
2022-08-02T05:25:14.309Z,21.04
2022-08-02T05:27:43.087Z,20.98
2022-08-02T05:30:11.167Z,21.03
2022-08-02T05:32:52.656Z,21.10
2022-08-02T05:35:22.836Z,21.11
2022-08-02T05:37:51.877Z,21.15
2022-08-02T05:40:25.412Z,21.22
2022-08-02T05:42:55.251Z,21.10
2022-08-02T05:45:24.106Z,21.19
2022-08-02T05:47:52.190Z,21.09
2022-08-02T05:50:20.103Z,21.08
2022-08-02T05:52:57.326Z,21.15
2022-08-02T05:55:34.397Z,21.18
2022-08-02T05:58:33.402Z,21.19
2022-08-02T06:01:04.113Z,21.17
2022-08-02T06:03:40.181Z,21.17
2022-08-02T06:06:17.826Z,21.23
2022-08-02T06:08:50.554Z,21.20
2022-08-02T06:11:22.841Z,21.25
2022-08-02T06:13:56.265Z,21.29
2022-08-02T06:16:32.129Z,21.39
2022-08-02T06:19:02.448Z,21.47
2022-08-02T06:22:32.651Z,21.51
2022-08-02T06:24:22.203Z,21.58
2022-08-02T06:26:55.152Z,21.60
2022-08-02T06:29:24.830Z,21.65
2022-08-02T06:31:54.184Z,21.74
2022-08-02T06:34:21.409Z,21.76
2022-08-02T06:37:21.101Z,21.69
2022-08-02T06:39:50.934Z,21.82
2022-08-02T06:42:46.503Z,21.88
2022-08-02T06:45:14.021Z,22.02
2022-08-02T06:47:41.426Z,22.15
2022-08-02T06:50:09.838Z,22.22
2022-08-02T06:52:37.939Z,22.35
2022-08-02T06:55:06.644Z,22.35
2022-08-02T06:57:34.818Z,22.36
2022-08-02T07:00:06.730Z,22.44
2022-08-02T07:02:39.954Z,22.52
2022-08-02T07:05:09.335Z,22.56
2022-08-02T07:07:37.092Z,22.45
2022-08-02T07:10:04.959Z,22.44
2022-08-02T07:12:34.679Z,22.48
2022-08-02T07:15:06.779Z,22.37
2022-08-02T07:17:35.774Z,22.34
2022-08-02T07:20:04.113Z,22.20
2022-08-02T07:22:31.463Z,22.20
2022-08-02T07:25:00.433Z,22.50
2022-08-02T07:27:28.689Z,22.48
2022-08-02T07:29:56.703Z,22.60
2022-08-02T07:32:30.230Z,22.75
2022-08-02T07:34:58.839Z,23.16
2022-08-02T07:37:53.690Z,23.38
2022-08-02T07:40:20.078Z,23.58
2022-08-02T07:42:59.371Z,23.98
2022-08-02T07:45:31.169Z,24.02
2022-08-02T07:47:58.801Z,23.58
2022-08-02T07:50:28.381Z,23.63
2022-08-02T07:52:57.938Z,23.45
2022-08-02T07:55:35.238Z,23.61
2022-08-02T07:58:10.863Z,23.79
2022-08-02T08:00:39.509Z,23.70
2022-08-02T08:03:06.793Z,23.66
2022-08-02T08:05:34.023Z,23.70
2022-08-02T08:08:01.491Z,23.64
2022-08-02T08:10:28.980Z,23.81
2022-08-02T08:12:56.386Z,24.40
2022-08-02T08:15:24.977Z,25.53
2022-08-02T08:17:52.277Z,26.10
2022-08-02T08:20:19.503Z,26.39
2022-08-02T08:22:47.989Z,26.68
2022-08-02T08:25:15.275Z,26.92
2022-08-02T08:27:52.919Z,27.37
2022-08-02T08:30:22.355Z,27.64
2022-08-02T08:32:49.917Z,28.04
2022-08-02T08:35:17.795Z,28.00
2022-08-02T08:37:45.340Z,28.19
2022-08-02T08:40:13.635Z,27.67
2022-08-02T08:42:47.279Z,27.32
2022-08-02T08:45:14.707Z,27.51
2022-08-02T08:47:43.221Z,27.86
2022-08-02T08:50:25.141Z,27.84
2022-08-02T08:53:03.754Z,27.55
2022-08-02T08:55:34.822Z,27.75
2022-08-02T08:58:03.895Z,27.72
2022-08-02T09:00:35.807Z,27.53
2022-08-02T09:03:06.469Z,28.12
2022-08-02T09:05:47.296Z,28.28
2022-08-02T09:08:16.988Z,28.67
2022-08-02T09:10:47.069Z,29.36
2022-08-02T09:13:38.161Z,30.24
2022-08-02T09:16:14.178Z,30.35
2022-08-02T09:18:46.926Z,29.84
2022-08-02T09:21:17.151Z,28.87
2022-08-02T09:23:52.708Z,28.91
2022-08-02T09:26:23.731Z,29.70
2022-08-02T09:28:59.366Z,30.26
2022-08-02T09:31:27.123Z,33.23
2022-08-02T09:34:01.025Z,36.41
2022-08-02T09:36:44.464Z,34.41
2022-08-02T09:39:15.863Z,32.33
2022-08-02T09:41:45.571Z,31.02
2022-08-02T09:44:16.568Z,30.60
2022-08-02T09:46:46.398Z,30.96
2022-08-02T09:49:19.614Z,31.19
2022-08-02T09:51:47.495Z,31.32
2022-08-02T09:54:34.075Z,31.73
2022-08-02T09:57:02.359Z,41.10
2022-08-02T09:59:30.986Z,47.89
2022-08-02T10:02:02.399Z,49.15
2022-08-02T10:04:33.892Z,46.74
2022-08-02T10:07:04.610Z,43.16
2022-08-02T10:09:33.251Z,44.45
2022-08-02T10:12:03.574Z,41.19
2022-08-02T10:14:34.622Z,41.36
2022-08-02T10:17:05.149Z,47.96
2022-08-02T10:20:01.764Z,48.10
2022-08-02T10:22:21.659Z,45.64
2022-08-02T10:24:51.688Z,41.79
2022-08-02T10:27:21.278Z,39.43
2022-08-02T10:29:54.101Z,37.99
2022-08-02T10:32:54.817Z,36.67
2022-08-02T10:35:26.629Z,36.86
2022-08-02T10:38:04.073Z,38.45
2022-08-02T10:40:50.314Z,37.15
2022-08-02T10:43:43.347Z,36.98
2022-08-02T10:46:38.351Z,45.71
2022-08-02T10:49:39.271Z,41.39
2022-08-02T10:52:06.927Z,42.38
2022-08-02T10:54:43.666Z,42.64
2022-08-02T10:57:28.869Z,41.65
2022-08-02T11:00:00.700Z,40.60
2022-08-02T11:02:47.296Z,40.48
2022-08-02T11:05:43.398Z,39.64
2022-08-02T11:08:22.452Z,39.11
2022-08-02T11:10:49.804Z,38.54
2022-08-02T11:13:19.863Z,37.97
2022-08-02T11:16:10.629Z,37.66
2022-08-02T11:18:51.157Z,37.69
2022-08-02T11:21:31.342Z,37.40
2022-08-02T11:24:27.965Z,37.38
2022-08-02T11:26:56.879Z,37.27
2022-08-02T11:29:43.935Z,37.34
2022-08-02T11:32:30.990Z,36.97
2022-08-02T11:35:00.662Z,36.82
2022-08-02T11:37:35.829Z,36.38
2022-08-02T11:40:09.103Z,35.94
2022-08-02T11:42:44.627Z,35.66
2022-08-02T11:45:21.062Z,35.58
2022-08-02T11:47:54.779Z,35.43
2022-08-02T11:50:29.950Z,35.64
2022-08-02T11:52:58.216Z,35.61
2022-08-02T11:55:31.585Z,34.84
2022-08-02T11:58:04.177Z,34.09
2022-08-02T12:00:32.832Z,33.60
2022-08-02T12:03:00.487Z,33.38
2022-08-02T12:06:03.999Z,33.35
2022-08-02T12:08:22.007Z,33.51
2022-08-02T12:10:50.931Z,34.09
2022-08-02T12:13:18.548Z,34.46
2022-08-02T12:15:47.662Z,34.61
2022-08-02T12:18:41.824Z,34.41
2022-08-02T12:21:27.375Z,34.21
2022-08-02T12:24:00.485Z,34.13
2022-08-02T12:26:30.546Z,34.37
2022-08-02T12:28:59.640Z,34.13
2022-08-02T12:31:56.008Z,33.89
2022-08-02T12:34:31.842Z,33.87
2022-08-02T12:37:10.248Z,34.05
2022-08-02T12:39:43.115Z,33.89
2022-08-02T12:42:15.848Z,33.46
2022-08-02T12:44:58.946Z,33.34
2022-08-02T12:47:36.190Z,33.98
2022-08-02T12:50:13.075Z,34.48
2022-08-02T12:52:40.298Z,34.94
2022-08-02T12:55:24.389Z,35.04
2022-08-02T12:58:02.596Z,35.02
2022-08-02T13:00:34.276Z,35.36
2022-08-02T13:03:02.353Z,35.34
2022-08-02T13:05:55.833Z,35.23
2022-08-02T13:08:18.441Z,35.37
2022-08-02T13:10:45.782Z,34.89
2022-08-02T13:13:13.108Z,34.81
2022-08-02T13:15:49.600Z,34.63
2022-08-02T13:18:18.673Z,34.87
2022-08-02T13:20:46.142Z,34.63
2022-08-02T13:23:21.729Z,34.48
2022-08-02T13:25:52.683Z,34.48
2022-08-02T13:28:21.198Z,34.79
2022-08-02T13:30:49.406Z,34.78
2022-08-02T13:33:18.341Z,34.67
2022-08-02T13:35:47.422Z,34.66
2022-08-02T13:38:14.829Z,34.65
2022-08-02T13:41:05.109Z,35.01
2022-08-02T13:43:52.173Z,34.91
2022-08-02T13:46:29.259Z,34.80
2022-08-02T13:48:57.328Z,34.79
2022-08-02T13:51:24.891Z,34.93
2022-08-02T13:53:52.157Z,34.91
2022-08-02T13:56:19.520Z,34.87
2022-08-02T13:59:54.696Z,34.94
2022-08-02T14:01:54.452Z,34.99
2022-08-02T14:04:22.726Z,34.57
2022-08-02T14:06:50.082Z,34.13
2022-08-02T14:09:18.031Z,34.17
2022-08-02T14:11:46.647Z,33.93
2022-08-02T14:14:16.900Z,33.97
2022-08-02T14:16:47.382Z,33.85
2022-08-02T14:19:16.619Z,33.60
2022-08-02T14:21:48.745Z,33.67
2022-08-02T14:24:21.512Z,33.89
2022-08-02T14:26:50.077Z,33.80
2022-08-02T14:29:17.979Z,33.98
2022-08-02T14:31:45.586Z,34.05
2022-08-02T14:34:14.084Z,33.97
2022-08-02T14:36:42.069Z,33.96
2022-08-02T14:39:10.106Z,33.88
2022-08-02T14:41:58.261Z,33.92
2022-08-02T14:44:25.222Z,33.70
2022-08-02T14:46:52.737Z,33.37
2022-08-02T14:49:26.096Z,33.19
2022-08-02T14:51:55.565Z,33.07
2022-08-02T14:54:28.139Z,32.83
2022-08-02T14:57:01.445Z,32.60
2022-08-02T14:59:29.996Z,32.53
2022-08-02T15:01:57.956Z,32.29
2022-08-02T15:04:25.946Z,32.19
2022-08-02T15:06:54.311Z,32.29
2022-08-02T15:09:22.729Z,32.21
2022-08-02T15:11:50.303Z,32.20
2022-08-02T15:14:22.122Z,32.05
2022-08-02T15:16:58.175Z,31.94
2022-08-02T15:19:56.066Z,31.79
2022-08-02T15:22:19.122Z,31.70
2022-08-02T15:24:48.802Z,31.65
2022-08-02T15:27:17.034Z,31.64
2022-08-02T15:29:46.937Z,31.64
2022-08-02T15:32:18.495Z,31.53
2022-08-02T15:34:47.499Z,31.45
2022-08-02T15:37:14.944Z,31.38
2022-08-02T15:39:42.316Z,31.26
2022-08-02T15:42:10.252Z,31.23
2022-08-02T15:44:37.832Z,31.17
2022-08-02T15:47:08.726Z,31.27
2022-08-02T15:49:39.452Z,31.24
2022-08-02T15:52:09.756Z,31.29
2022-08-02T15:54:37.347Z,31.29
2022-08-02T15:57:04.974Z,31.32
2022-08-02T15:59:32.345Z,31.30
2022-08-02T16:01:59.850Z,31.25
2022-08-02T16:04:27.159Z,31.09
2022-08-02T16:06:54.350Z,31.00
2022-08-02T16:09:21.812Z,30.88
2022-08-02T16:11:49.270Z,30.67
2022-08-02T16:14:16.567Z,30.57
2022-08-02T16:16:44.927Z,30.44
2022-08-02T16:19:47.400Z,30.36
2022-08-02T16:21:59.691Z,30.20
2022-08-02T16:24:27.202Z,29.96
2022-08-02T16:26:54.528Z,29.88
2022-08-02T16:29:22.059Z,29.71
2022-08-02T16:31:49.471Z,29.63
2022-08-02T16:34:18.166Z,29.56
2022-08-02T16:36:46.147Z,29.51
2022-08-02T16:39:14.589Z,29.49
2022-08-02T16:41:50.603Z,29.36
2022-08-02T16:44:27.565Z,29.24
2022-08-02T16:47:01.856Z,29.17
2022-08-02T16:50:04.866Z,29.14
2022-08-02T16:52:19.513Z,29.08
2022-08-02T16:54:49.671Z,29.01
2022-08-02T16:57:20.045Z,28.93
2022-08-02T16:59:57.904Z,28.89
2022-08-02T17:02:27.742Z,28.84
2022-08-02T17:04:56.765Z,28.79
2022-08-02T17:08:07.694Z,28.73
2022-08-02T17:10:12.118Z,28.66
2022-08-02T17:12:40.167Z,28.63
2022-08-02T17:16:01.289Z,28.52
2022-08-02T17:17:56.980Z,28.40
2022-08-02T17:20:24.769Z,28.33
2022-08-02T17:22:52.812Z,28.28
2022-08-02T17:25:21.744Z,28.21
2022-08-02T17:27:55.617Z,28.15
2022-08-02T17:30:26.467Z,28.06
2022-08-02T17:32:57.880Z,28.01
2022-08-02T17:35:43.370Z,27.90
2022-08-02T17:38:26.098Z,27.92
2022-08-02T17:40:55.861Z,27.88
2022-08-02T17:43:29.145Z,27.79
2022-08-02T17:46:00.000Z,27.69
2022-08-02T17:48:50.315Z,27.62
2022-08-02T17:52:15.043Z,27.54
2022-08-02T17:54:11.863Z,27.47
2022-08-02T17:56:42.506Z,27.36
2022-08-02T17:59:31.066Z,27.22
2022-08-02T18:02:11.269Z,27.02
2022-08-02T18:04:39.069Z,26.76
2022-08-02T18:07:09.676Z,26.56
2022-08-02T18:09:43.425Z,26.39
2022-08-02T18:12:25.947Z,26.24
2022-08-02T18:14:55.256Z,26.11
2022-08-02T18:17:22.663Z,25.97
2022-08-02T18:19:57.455Z,25.86
2022-08-02T18:22:28.057Z,25.71
2022-08-02T18:24:55.409Z,25.62
2022-08-02T18:27:23.786Z,25.50
2022-08-02T18:30:04.191Z,25.38
2022-08-02T18:33:55.239Z,25.23
2022-08-02T18:35:20.716Z,25.11
2022-08-02T18:37:56.911Z,25.01
2022-08-02T18:40:28.733Z,24.85
2022-08-02T18:42:55.990Z,24.74
2022-08-02T18:45:23.415Z,24.63
2022-08-02T18:47:51.442Z,24.53
2022-08-02T18:50:20.256Z,24.41
2022-08-02T18:52:48.238Z,24.33
2022-08-02T18:55:17.558Z,24.27
2022-08-02T18:58:18.405Z,24.19
2022-08-02T19:00:51.721Z,24.07
2022-08-02T19:03:20.649Z,24.03
2022-08-02T19:05:52.372Z,23.95
2022-08-02T19:08:26.145Z,23.91
2022-08-02T19:10:56.460Z,23.82
2022-08-02T19:13:24.838Z,23.74
2022-08-02T19:15:53.525Z,23.72
2022-08-02T19:18:26.890Z,23.68
2022-08-02T19:21:05.138Z,23.65
2022-08-02T19:23:33.473Z,23.59
2022-08-02T19:26:01.645Z,23.50
2022-08-02T19:28:29.314Z,23.38
2022-08-02T19:30:58.252Z,23.29
2022-08-02T19:34:04.350Z,23.22
2022-08-02T19:36:13.340Z,23.16
2022-08-02T19:38:45.545Z,23.11
2022-08-02T19:41:16.765Z,23.09
2022-08-02T19:44:24.211Z,23.07
2022-08-02T19:46:31.772Z,23.02
2022-08-02T19:49:16.359Z,22.94
2022-08-02T19:51:49.921Z,22.86
2022-08-02T19:57:14.326Z,22.77
2022-08-02T19:59:46.973Z,22.73
2022-08-02T20:02:15.891Z,22.72
2022-08-02T20:04:49.832Z,22.61
2022-08-02T20:07:49.934Z,22.55
2022-08-02T20:10:06.124Z,22.49
2022-08-02T20:12:39.946Z,22.47
2022-08-02T20:15:15.009Z,22.47
2022-08-02T20:17:47.692Z,22.44
2022-08-02T20:20:17.698Z,22.39
2022-08-02T20:23:31.926Z,22.38
2022-08-02T20:25:54.051Z,22.32
2022-08-02T20:28:22.577Z,22.33
2022-08-02T20:30:50.152Z,22.27
2022-08-02T20:33:22.114Z,22.27
2022-08-02T20:35:53.288Z,22.23
2022-08-02T20:38:24.880Z,22.25
2022-08-02T20:40:56.002Z,22.23
2022-08-02T20:43:31.140Z,22.23
2022-08-02T20:46:00.576Z,22.19
2022-08-02T20:48:30.367Z,22.14
2022-08-02T20:50:58.615Z,22.04
2022-08-02T20:53:29.946Z,21.89
2022-08-02T20:55:58.205Z,21.81
2022-08-02T20:58:26.658Z,21.73
2022-08-02T21:00:59.406Z,21.67
2022-08-02T21:03:39.121Z,21.58
2022-08-02T21:06:09.973Z,21.49
2022-08-02T21:08:38.733Z,21.47
2022-08-02T21:14:06.938Z,21.44
2022-08-02T21:16:37.204Z,21.49
2022-08-02T21:19:07.905Z,21.50
2022-08-02T21:21:38.226Z,21.41
2022-08-02T21:24:05.935Z,21.36
2022-08-02T21:26:33.452Z,21.38
2022-08-02T21:31:49.339Z,21.37
2022-08-02T21:34:26.545Z,21.34
2022-08-02T21:36:55.724Z,21.35
2022-08-02T21:39:23.491Z,21.35
2022-08-02T21:41:51.158Z,21.36
2022-08-02T21:44:22.186Z,21.37
2022-08-02T21:46:54.095Z,21.29
2022-08-02T21:49:40.495Z,21.30
2022-08-02T21:52:11.495Z,21.22
2022-08-02T21:54:40.017Z,21.19
2022-08-02T21:57:16.580Z,21.18
2022-08-02T21:59:46.440Z,21.18
2022-08-02T22:02:15.995Z,21.17
2022-08-02T22:04:47.517Z,21.17
2022-08-02T22:07:24.038Z,21.19
2022-08-02T22:09:53.257Z,21.20
2022-08-02T22:12:21.884Z,21.18
2022-08-02T22:14:55.672Z,21.16
2022-08-02T22:17:51.123Z,21.14
2022-08-02T22:20:19.642Z,21.12
2022-08-02T22:22:50.157Z,21.12
2022-08-02T22:25:26.345Z,21.11
2022-08-02T22:28:36.191Z,21.10
2022-08-02T22:30:46.469Z,21.07
2022-08-02T22:33:42.559Z,21.04
2022-08-02T22:36:15.653Z,21.02
2022-08-02T22:38:45.140Z,20.99
2022-08-02T22:41:14.732Z,20.98
2022-08-02T22:43:43.335Z,20.99
2022-08-02T22:46:15.383Z,20.98
2022-08-02T22:48:45.570Z,20.96
2022-08-02T22:51:15.160Z,20.96
2022-08-02T22:53:44.543Z,20.96
2022-08-02T22:56:14.519Z,20.94
2022-08-02T22:58:53.720Z,22.80
2022-08-02T22:59:02.909Z,21.36
2022-08-02T22:59:12.142Z,21.44
2022-08-02T23:01:30.851Z,20.86
2022-08-02T23:03:58.618Z,20.82
2022-08-02T23:06:25.823Z,20.78
2022-08-02T23:08:53.105Z,20.73
2022-08-02T23:11:20.586Z,20.70
2022-08-02T23:13:47.861Z,20.68
2022-08-02T23:16:39.039Z,20.60
2022-08-02T23:19:25.482Z,20.55
2022-08-02T23:22:01.679Z,20.54
2022-08-02T23:24:33.533Z,20.49
2022-08-02T23:27:01.517Z,20.46
2022-08-02T23:29:29.057Z,20.41
2022-08-02T23:31:56.668Z,20.39
2022-08-02T23:34:26.568Z,20.37
2022-08-02T23:36:53.799Z,20.34
2022-08-02T23:39:21.353Z,20.34
2022-08-02T23:41:49.292Z,20.33
2022-08-02T23:44:23.743Z,20.33
2022-08-02T23:46:52.414Z,20.33
2022-08-02T23:49:20.597Z,20.32
2022-08-02T23:51:50.209Z,20.31
2022-08-02T23:54:18.387Z,20.31
2022-08-02T23:56:46.300Z,20.31
2022-08-02T23:59:14.612Z,20.28
